sensor_id;sensor_type;location;lat;lon;timestamp;P1;durP1;ratioP1;P2;durP2;ratioP2
10154;SDS011;5118;48.570;7.916;2024-03-07T00:00:15;30.00;;;23.53;;
10154;SDS011;5118;48.570;7.916;2024-03-07T00:02:46;27.80;;;23.63;;
10154;SDS011;5118;48.570;7.916;2024-03-07T00:05:16;28.27;;;23.23;;
10154;SDS011;5118;48.570;7.916;2024-03-07T00:07:47;30.57;;;24.77;;
10154;SDS011;5118;48.570;7.916;2024-03-07T00:10:17;28.37;;;24.30;;
10154;SDS011;5118;48.570;7.916;2024-03-07T00:12:49;29.50;;;24.60;;
10154;SDS011;5118;48.570;7.916;2024-03-07T00:15:18;30.63;;;25.93;;
10154;SDS011;5118;48.570;7.916;2024-03-07T00:17:47;29.80;;;25.53;;
10154;SDS011;5118;48.570;7.916;2024-03-07T00:20:16;33.60;;;25.87;;
10154;SDS011;5118;48.570;7.916;2024-03-07T00:22:47;32.40;;;26.97;;
10154;SDS011;5118;48.570;7.916;2024-03-07T00:25:15;33.60;;;27.97;;
10154;SDS011;5118;48.570;7.916;2024-03-07T00:27:47;33.20;;;28.13;;
10154;SDS011;5118;48.570;7.916;2024-03-07T00:30:19;37.50;;;30.27;;
10154;SDS011;5118;48.570;7.916;2024-03-07T00:32:47;37.07;;;28.80;;
10154;SDS011;5118;48.570;7.916;2024-03-07T00:35:16;40.27;;;30.93;;
10154;SDS011;5118;48.570;7.916;2024-03-07T00:37:45;39.60;;;32.53;;
10154;SDS011;5118;48.570;7.916;2024-03-07T00:40:14;39.93;;;31.27;;
10154;SDS011;5118;48.570;7.916;2024-03-07T00:42:43;34.73;;;28.43;;
10154;SDS011;5118;48.570;7.916;2024-03-07T00:45:12;36.07;;;28.03;;
10154;SDS011;5118;48.570;7.916;2024-03-07T00:47:40;35.43;;;27.70;;
10154;SDS011;5118;48.570;7.916;2024-03-07T00:50:09;36.47;;;28.93;;
10154;SDS011;5118;48.570;7.916;2024-03-07T00:52:38;38.77;;;30.57;;
10154;SDS011;5118;48.570;7.916;2024-03-07T00:55:07;38.80;;;30.50;;
10154;SDS011;5118;48.570;7.916;2024-03-07T00:57:36;34.63;;;27.37;;
10154;SDS011;5118;48.570;7.916;2024-03-07T01:00:06;39.13;;;29.73;;
10154;SDS011;5118;48.570;7.916;2024-03-07T01:02:41;35.20;;;27.90;;
10154;SDS011;5118;48.570;7.916;2024-03-07T01:05:11;36.90;;;29.33;;
10154;SDS011;5118;48.570;7.916;2024-03-07T01:07:41;36.83;;;28.50;;
10154;SDS011;5118;48.570;7.916;2024-03-07T01:10:10;32.87;;;27.23;;
10154;SDS011;5118;48.570;7.916;2024-03-07T01:12:38;35.50;;;28.30;;
10154;SDS011;5118;48.570;7.916;2024-03-07T01:15:08;39.77;;;29.00;;
10154;SDS011;5118;48.570;7.916;2024-03-07T01:17:39;36.77;;;29.80;;
10154;SDS011;5118;48.570;7.916;2024-03-07T01:20:08;42.77;;;30.90;;
10154;SDS011;5118;48.570;7.916;2024-03-07T01:22:38;37.87;;;30.33;;
10154;SDS011;5118;48.570;7.916;2024-03-07T01:25:06;47.57;;;34.50;;
10154;SDS011;5118;48.570;7.916;2024-03-07T01:27:35;42.07;;;32.30;;
10154;SDS011;5118;48.570;7.916;2024-03-07T01:30:04;45.50;;;34.17;;
10154;SDS011;5118;48.570;7.916;2024-03-07T01:32:36;45.93;;;35.07;;
10154;SDS011;5118;48.570;7.916;2024-03-07T01:35:05;45.03;;;33.33;;
10154;SDS011;5118;48.570;7.916;2024-03-07T01:37:35;46.93;;;35.17;;
10154;SDS011;5118;48.570;7.916;2024-03-07T01:40:04;42.07;;;31.33;;
10154;SDS011;5118;48.570;7.916;2024-03-07T01:42:33;43.37;;;32.37;;
10154;SDS011;5118;48.570;7.916;2024-03-07T01:45:02;40.93;;;31.53;;
10154;SDS011;5118;48.570;7.916;2024-03-07T01:47:31;43.67;;;32.80;;
10154;SDS011;5118;48.570;7.916;2024-03-07T01:50:01;42.87;;;34.03;;
10154;SDS011;5118;48.570;7.916;2024-03-07T01:52:31;48.27;;;34.53;;
10154;SDS011;5118;48.570;7.916;2024-03-07T01:55:00;48.40;;;35.77;;
10154;SDS011;5118;48.570;7.916;2024-03-07T01:57:29;47.87;;;35.37;;
10154;SDS011;5118;48.570;7.916;2024-03-07T01:59:58;48.60;;;34.53;;
10154;SDS011;5118;48.570;7.916;2024-03-07T02:02:34;50.27;;;35.43;;
10154;SDS011;5118;48.570;7.916;2024-03-07T02:05:04;45.93;;;34.87;;
10154;SDS011;5118;48.570;7.916;2024-03-07T02:07:33;49.53;;;36.83;;
10154;SDS011;5118;48.570;7.916;2024-03-07T02:10:02;48.57;;;38.13;;
10154;SDS011;5118;48.570;7.916;2024-03-07T02:12:32;49.40;;;37.33;;
10154;SDS011;5118;48.570;7.916;2024-03-07T02:15:00;52.43;;;37.73;;
10154;SDS011;5118;48.570;7.916;2024-03-07T02:17:29;54.10;;;37.60;;
10154;SDS011;5118;48.570;7.916;2024-03-07T02:19:58;46.20;;;34.87;;
10154;SDS011;5118;48.570;7.916;2024-03-07T02:22:28;54.57;;;39.10;;
10154;SDS011;5118;48.570;7.916;2024-03-07T02:24:57;49.27;;;37.27;;
10154;SDS011;5118;48.570;7.916;2024-03-07T02:27:25;48.27;;;36.47;;
10154;SDS011;5118;48.570;7.916;2024-03-07T02:29:54;51.60;;;37.03;;
10154;SDS011;5118;48.570;7.916;2024-03-07T02:32:22;54.43;;;37.90;;
10154;SDS011;5118;48.570;7.916;2024-03-07T02:34:53;57.67;;;39.00;;
10154;SDS011;5118;48.570;7.916;2024-03-07T02:37:22;59.37;;;40.37;;
10154;SDS011;5118;48.570;7.916;2024-03-07T02:39:51;52.80;;;38.30;;
10154;SDS011;5118;48.570;7.916;2024-03-07T02:42:20;61.40;;;40.93;;
10154;SDS011;5118;48.570;7.916;2024-03-07T02:44:48;54.40;;;39.33;;
10154;SDS011;5118;48.570;7.916;2024-03-07T02:47:19;68.30;;;43.27;;
10154;SDS011;5118;48.570;7.916;2024-03-07T02:49:50;58.10;;;39.07;;
10154;SDS011;5118;48.570;7.916;2024-03-07T02:52:19;63.93;;;43.40;;
10154;SDS011;5118;48.570;7.916;2024-03-07T02:54:47;63.30;;;42.33;;
10154;SDS011;5118;48.570;7.916;2024-03-07T02:57:17;74.07;;;44.13;;
10154;SDS011;5118;48.570;7.916;2024-03-07T02:59:46;89.40;;;48.87;;
10154;SDS011;5118;48.570;7.916;2024-03-07T03:02:14;88.37;;;48.90;;
10154;SDS011;5118;48.570;7.916;2024-03-07T03:04:43;88.23;;;47.47;;
10154;SDS011;5118;48.570;7.916;2024-03-07T03:07:11;88.03;;;47.87;;
10154;SDS011;5118;48.570;7.916;2024-03-07T03:09:40;94.33;;;49.43;;
10154;SDS011;5118;48.570;7.916;2024-03-07T03:12:10;108.47;;;51.60;;
10154;SDS011;5118;48.570;7.916;2024-03-07T03:14:40;109.07;;;53.90;;
10154;SDS011;5118;48.570;7.916;2024-03-07T03:17:08;112.63;;;54.53;;
10154;SDS011;5118;48.570;7.916;2024-03-07T03:19:38;116.27;;;54.80;;
10154;SDS011;5118;48.570;7.916;2024-03-07T03:22:06;121.17;;;57.20;;
10154;SDS011;5118;48.570;7.916;2024-03-07T03:24:35;120.00;;;54.73;;
10154;SDS011;5118;48.570;7.916;2024-03-07T03:27:04;109.93;;;52.47;;
10154;SDS011;5118;48.570;7.916;2024-03-07T03:29:32;143.70;;;57.80;;
10154;SDS011;5118;48.570;7.916;2024-03-07T03:32:03;141.70;;;57.37;;
10154;SDS011;5118;48.570;7.916;2024-03-07T03:34:32;134.93;;;58.93;;
10154;SDS011;5118;48.570;7.916;2024-03-07T03:37:01;167.87;;;64.87;;
10154;SDS011;5118;48.570;7.916;2024-03-07T03:39:31;151.93;;;61.97;;
10154;SDS011;5118;48.570;7.916;2024-03-07T03:42:00;141.03;;;60.80;;
10154;SDS011;5118;48.570;7.916;2024-03-07T03:44:28;144.37;;;57.60;;
10154;SDS011;5118;48.570;7.916;2024-03-07T03:46:59;137.07;;;59.70;;
10154;SDS011;5118;48.570;7.916;2024-03-07T03:49:32;147.73;;;58.40;;
10154;SDS011;5118;48.570;7.916;2024-03-07T03:52:00;137.50;;;58.00;;
10154;SDS011;5118;48.570;7.916;2024-03-07T03:54:29;135.67;;;55.33;;
10154;SDS011;5118;48.570;7.916;2024-03-07T03:56:58;141.43;;;55.83;;
10154;SDS011;5118;48.570;7.916;2024-03-07T03:59:26;165.53;;;60.37;;
10154;SDS011;5118;48.570;7.916;2024-03-07T04:01:55;226.00;;;67.90;;
10154;SDS011;5118;48.570;7.916;2024-03-07T04:04:24;147.77;;;59.17;;
10154;SDS011;5118;48.570;7.916;2024-03-07T04:06:54;206.13;;;65.93;;
10154;SDS011;5118;48.570;7.916;2024-03-07T04:09:22;181.13;;;61.90;;
10154;SDS011;5118;48.570;7.916;2024-03-07T04:11:55;216.43;;;68.03;;
10154;SDS011;5118;48.570;7.916;2024-03-07T04:14:24;214.27;;;70.17;;
10154;SDS011;5118;48.570;7.916;2024-03-07T04:16:53;233.07;;;70.27;;
10154;SDS011;5118;48.570;7.916;2024-03-07T04:19:23;229.87;;;72.10;;
10154;SDS011;5118;48.570;7.916;2024-03-07T04:21:53;220.00;;;69.63;;
10154;SDS011;5118;48.570;7.916;2024-03-07T04:24:22;247.47;;;71.00;;
10154;SDS011;5118;48.570;7.916;2024-03-07T04:26:50;179.63;;;63.60;;
10154;SDS011;5118;48.570;7.916;2024-03-07T04:29:20;217.80;;;67.53;;
10154;SDS011;5118;48.570;7.916;2024-03-07T04:31:49;216.23;;;68.17;;
10154;SDS011;5118;48.570;7.916;2024-03-07T04:34:17;206.67;;;65.90;;
10154;SDS011;5118;48.570;7.916;2024-03-07T04:36:46;184.00;;;61.43;;
10154;SDS011;5118;48.570;7.916;2024-03-07T04:39:16;213.40;;;63.90;;
10154;SDS011;5118;48.570;7.916;2024-03-07T04:41:53;241.23;;;65.33;;
10154;SDS011;5118;48.570;7.916;2024-03-07T04:44:24;220.97;;;65.57;;
10154;SDS011;5118;48.570;7.916;2024-03-07T04:46:52;188.60;;;60.30;;
10154;SDS011;5118;48.570;7.916;2024-03-07T04:49:22;180.67;;;59.37;;
10154;SDS011;5118;48.570;7.916;2024-03-07T04:51:51;190.63;;;59.43;;
10154;SDS011;5118;48.570;7.916;2024-03-07T04:54:21;195.73;;;60.60;;
10154;SDS011;5118;48.570;7.916;2024-03-07T04:56:51;177.43;;;60.57;;
10154;SDS011;5118;48.570;7.916;2024-03-07T04:59:21;170.70;;;59.03;;
10154;SDS011;5118;48.570;7.916;2024-03-07T05:01:50;178.30;;;59.00;;
10154;SDS011;5118;48.570;7.916;2024-03-07T05:04:20;166.63;;;59.10;;
10154;SDS011;5118;48.570;7.916;2024-03-07T05:06:51;172.10;;;61.33;;
10154;SDS011;5118;48.570;7.916;2024-03-07T05:09:21;186.77;;;60.87;;
10154;SDS011;5118;48.570;7.916;2024-03-07T05:11:52;182.70;;;61.23;;
10154;SDS011;5118;48.570;7.916;2024-03-07T05:14:24;181.07;;;62.30;;
10154;SDS011;5118;48.570;7.916;2024-03-07T05:16:52;169.40;;;60.23;;
10154;SDS011;5118;48.570;7.916;2024-03-07T05:19:32;208.07;;;64.43;;
10154;SDS011;5118;48.570;7.916;2024-03-07T05:22:01;194.67;;;64.37;;
10154;SDS011;5118;48.570;7.916;2024-03-07T05:24:41;172.47;;;62.10;;
10154;SDS011;5118;48.570;7.916;2024-03-07T05:27:10;184.80;;;64.53;;
10154;SDS011;5118;48.570;7.916;2024-03-07T05:29:39;202.37;;;65.27;;
10154;SDS011;5118;48.570;7.916;2024-03-07T05:32:20;170.57;;;60.77;;
10154;SDS011;5118;48.570;7.916;2024-03-07T05:34:50;191.67;;;65.67;;
10154;SDS011;5118;48.570;7.916;2024-03-07T05:37:20;197.57;;;64.90;;
10154;SDS011;5118;48.570;7.916;2024-03-07T05:39:51;182.87;;;63.23;;
10154;SDS011;5118;48.570;7.916;2024-03-07T05:42:20;157.00;;;58.20;;
10154;SDS011;5118;48.570;7.916;2024-03-07T05:44:48;159.80;;;61.40;;
10154;SDS011;5118;48.570;7.916;2024-03-07T05:47:17;171.90;;;61.43;;
10154;SDS011;5118;48.570;7.916;2024-03-07T05:49:45;154.73;;;59.17;;
10154;SDS011;5118;48.570;7.916;2024-03-07T05:52:15;166.90;;;61.73;;
10154;SDS011;5118;48.570;7.916;2024-03-07T05:54:44;143.97;;;60.27;;
10154;SDS011;5118;48.570;7.916;2024-03-07T05:57:14;163.90;;;63.77;;
10154;SDS011;5118;48.570;7.916;2024-03-07T05:59:42;166.27;;;63.50;;
10154;SDS011;5118;48.570;7.916;2024-03-07T06:02:11;139.43;;;59.93;;
10154;SDS011;5118;48.570;7.916;2024-03-07T06:04:42;179.33;;;68.33;;
10154;SDS011;5118;48.570;7.916;2024-03-07T06:07:11;131.93;;;57.80;;
10154;SDS011;5118;48.570;7.916;2024-03-07T06:09:40;153.33;;;64.80;;
10154;SDS011;5118;48.570;7.916;2024-03-07T06:12:10;155.93;;;70.13;;
10154;SDS011;5118;48.570;7.916;2024-03-07T06:14:53;160.20;;;66.30;;
10154;SDS011;5118;48.570;7.916;2024-03-07T06:17:22;165.70;;;74.93;;
10154;SDS011;5118;48.570;7.916;2024-03-07T06:19:53;154.27;;;65.20;;
10154;SDS011;5118;48.570;7.916;2024-03-07T06:22:22;149.63;;;62.87;;
10154;SDS011;5118;48.570;7.916;2024-03-07T06:24:50;129.10;;;57.70;;
10154;SDS011;5118;48.570;7.916;2024-03-07T06:27:20;125.07;;;57.90;;
10154;SDS011;5118;48.570;7.916;2024-03-07T06:30:06;116.77;;;55.50;;
10154;SDS011;5118;48.570;7.916;2024-03-07T06:32:36;150.20;;;69.23;;
10154;SDS011;5118;48.570;7.916;2024-03-07T06:35:05;168.60;;;82.97;;
10154;SDS011;5118;48.570;7.916;2024-03-07T06:37:33;133.73;;;59.30;;
10154;SDS011;5118;48.570;7.916;2024-03-07T06:40:02;138.80;;;63.90;;
10154;SDS011;5118;48.570;7.916;2024-03-07T06:42:36;136.63;;;58.83;;
10154;SDS011;5118;48.570;7.916;2024-03-07T06:45:06;138.00;;;60.43;;
10154;SDS011;5118;48.570;7.916;2024-03-07T06:47:35;135.83;;;59.57;;
10154;SDS011;5118;48.570;7.916;2024-03-07T06:50:04;138.43;;;59.70;;
10154;SDS011;5118;48.570;7.916;2024-03-07T06:52:45;132.80;;;57.13;;
10154;SDS011;5118;48.570;7.916;2024-03-07T06:55:14;129.90;;;57.67;;
10154;SDS011;5118;48.570;7.916;2024-03-07T06:57:45;124.23;;;58.03;;
10154;SDS011;5118;48.570;7.916;2024-03-07T07:00:16;120.63;;;58.27;;
10154;SDS011;5118;48.570;7.916;2024-03-07T07:02:46;112.67;;;56.00;;
10154;SDS011;5118;48.570;7.916;2024-03-07T07:05:15;113.00;;;56.50;;
10154;SDS011;5118;48.570;7.916;2024-03-07T07:07:45;124.63;;;57.27;;
10154;SDS011;5118;48.570;7.916;2024-03-07T07:10:13;131.10;;;58.47;;
10154;SDS011;5118;48.570;7.916;2024-03-07T07:12:44;116.07;;;56.93;;
10154;SDS011;5118;48.570;7.916;2024-03-07T07:15:16;114.57;;;56.50;;
10154;SDS011;5118;48.570;7.916;2024-03-07T07:17:47;108.47;;;56.70;;
10154;SDS011;5118;48.570;7.916;2024-03-07T07:20:16;112.30;;;56.23;;
10154;SDS011;5118;48.570;7.916;2024-03-07T07:22:46;117.33;;;57.87;;
10154;SDS011;5118;48.570;7.916;2024-03-07T07:25:15;110.73;;;55.80;;
10154;SDS011;5118;48.570;7.916;2024-03-07T07:27:44;108.77;;;54.07;;
10154;SDS011;5118;48.570;7.916;2024-03-07T07:30:14;102.73;;;53.83;;
10154;SDS011;5118;48.570;7.916;2024-03-07T07:32:45;99.97;;;53.67;;
10154;SDS011;5118;48.570;7.916;2024-03-07T07:35:14;100.20;;;53.20;;
10154;SDS011;5118;48.570;7.916;2024-03-07T07:37:46;89.83;;;50.97;;
10154;SDS011;5118;48.570;7.916;2024-03-07T07:40:16;84.80;;;49.77;;
10154;SDS011;5118;48.570;7.916;2024-03-07T07:42:47;90.17;;;50.03;;
10154;SDS011;5118;48.570;7.916;2024-03-07T07:45:19;86.27;;;50.60;;
10154;SDS011;5118;48.570;7.916;2024-03-07T07:47:50;78.63;;;48.00;;
10154;SDS011;5118;48.570;7.916;2024-03-07T07:50:20;74.50;;;46.53;;
10154;SDS011;5118;48.570;7.916;2024-03-07T07:52:51;69.07;;;46.63;;
10154;SDS011;5118;48.570;7.916;2024-03-07T07:55:21;76.13;;;48.03;;
10154;SDS011;5118;48.570;7.916;2024-03-07T07:57:52;74.23;;;47.80;;
10154;SDS011;5118;48.570;7.916;2024-03-07T08:00:23;67.33;;;44.13;;
10154;SDS011;5118;48.570;7.916;2024-03-07T08:02:57;65.73;;;43.03;;
10154;SDS011;5118;48.570;7.916;2024-03-07T08:05:27;66.97;;;44.67;;
10154;SDS011;5118;48.570;7.916;2024-03-07T08:07:57;60.73;;;41.70;;
10154;SDS011;5118;48.570;7.916;2024-03-07T08:10:28;64.97;;;44.60;;
10154;SDS011;5118;48.570;7.916;2024-03-07T08:12:56;60.23;;;41.93;;
10154;SDS011;5118;48.570;7.916;2024-03-07T08:15:28;177.20;;;80.50;;
10154;SDS011;5118;48.570;7.916;2024-03-07T08:17:57;249.67;;;102.00;;
10154;SDS011;5118;48.570;7.916;2024-03-07T08:20:27;63.17;;;44.93;;
10154;SDS011;5118;48.570;7.916;2024-03-07T08:22:56;197.73;;;88.13;;
10154;SDS011;5118;48.570;7.916;2024-03-07T08:25:26;87.60;;;50.43;;
10154;SDS011;5118;48.570;7.916;2024-03-07T08:27:56;77.37;;;47.37;;
10154;SDS011;5118;48.570;7.916;2024-03-07T08:30:25;57.50;;;42.60;;
10154;SDS011;5118;48.570;7.916;2024-03-07T08:32:57;122.90;;;80.63;;
10154;SDS011;5118;48.570;7.916;2024-03-07T08:35:29;57.90;;;41.07;;
10154;SDS011;5118;48.570;7.916;2024-03-07T08:37:57;57.10;;;40.57;;
10154;SDS011;5118;48.570;7.916;2024-03-07T08:40:26;54.20;;;38.87;;
10154;SDS011;5118;48.570;7.916;2024-03-07T08:43:00;53.50;;;39.30;;
10154;SDS011;5118;48.570;7.916;2024-03-07T08:45:30;50.13;;;39.10;;
10154;SDS011;5118;48.570;7.916;2024-03-07T08:48:02;51.40;;;38.83;;
10154;SDS011;5118;48.570;7.916;2024-03-07T08:50:32;50.13;;;38.27;;
10154;SDS011;5118;48.570;7.916;2024-03-07T08:53:02;49.53;;;37.00;;
10154;SDS011;5118;48.570;7.916;2024-03-07T08:55:31;49.47;;;36.93;;
10154;SDS011;5118;48.570;7.916;2024-03-07T08:57:59;50.90;;;38.90;;
10154;SDS011;5118;48.570;7.916;2024-03-07T09:00:28;48.13;;;36.67;;
10154;SDS011;5118;48.570;7.916;2024-03-07T09:02:58;43.17;;;34.27;;
10154;SDS011;5118;48.570;7.916;2024-03-07T09:05:30;43.30;;;35.67;;
10154;SDS011;5118;48.570;7.916;2024-03-07T09:08:00;41.43;;;33.47;;
10154;SDS011;5118;48.570;7.916;2024-03-07T09:10:30;43.10;;;34.13;;
10154;SDS011;5118;48.570;7.916;2024-03-07T09:12:58;40.17;;;32.47;;
10154;SDS011;5118;48.570;7.916;2024-03-07T09:15:27;40.10;;;31.23;;
10154;SDS011;5118;48.570;7.916;2024-03-07T09:17:55;37.57;;;31.90;;
10154;SDS011;5118;48.570;7.916;2024-03-07T09:20:26;41.90;;;33.03;;
10154;SDS011;5118;48.570;7.916;2024-03-07T09:22:55;37.87;;;32.07;;
10154;SDS011;5118;48.570;7.916;2024-03-07T09:25:24;36.83;;;30.80;;
10154;SDS011;5118;48.570;7.916;2024-03-07T09:27:53;37.70;;;30.77;;
10154;SDS011;5118;48.570;7.916;2024-03-07T09:30:22;35.83;;;30.27;;
10154;SDS011;5118;48.570;7.916;2024-03-07T09:32:54;35.63;;;30.23;;
10154;SDS011;5118;48.570;7.916;2024-03-07T09:35:23;34.43;;;28.80;;
10154;SDS011;5118;48.570;7.916;2024-03-07T09:37:53;34.93;;;29.60;;
10154;SDS011;5118;48.570;7.916;2024-03-07T09:40:23;34.33;;;28.97;;
10154;SDS011;5118;48.570;7.916;2024-03-07T09:42:53;31.33;;;27.93;;
10154;SDS011;5118;48.570;7.916;2024-03-07T09:45:28;32.17;;;27.90;;
10154;SDS011;5118;48.570;7.916;2024-03-07T09:47:58;31.17;;;26.87;;
10154;SDS011;5118;48.570;7.916;2024-03-07T09:50:29;32.47;;;28.43;;
10154;SDS011;5118;48.570;7.916;2024-03-07T09:52:59;32.70;;;28.23;;
10154;SDS011;5118;48.570;7.916;2024-03-07T09:55:31;30.70;;;27.00;;
10154;SDS011;5118;48.570;7.916;2024-03-07T09:58:00;30.40;;;27.07;;
10154;SDS011;5118;48.570;7.916;2024-03-07T10:00:33;30.40;;;26.70;;
10154;SDS011;5118;48.570;7.916;2024-03-07T10:03:05;28.80;;;25.53;;
10154;SDS011;5118;48.570;7.916;2024-03-07T10:05:36;29.50;;;26.33;;
10154;SDS011;5118;48.570;7.916;2024-03-07T10:08:09;29.17;;;26.00;;
10154;SDS011;5118;48.570;7.916;2024-03-07T10:10:39;29.50;;;26.43;;
10154;SDS011;5118;48.570;7.916;2024-03-07T10:13:08;26.97;;;24.10;;
10154;SDS011;5118;48.570;7.916;2024-03-07T10:15:37;29.67;;;26.43;;
10154;SDS011;5118;48.570;7.916;2024-03-07T10:18:06;29.47;;;26.13;;
10154;SDS011;5118;48.570;7.916;2024-03-07T10:20:37;32.37;;;26.70;;
10154;SDS011;5118;48.570;7.916;2024-03-07T10:23:06;28.07;;;25.13;;
10154;SDS011;5118;48.570;7.916;2024-03-07T10:25:37;30.40;;;25.57;;
10154;SDS011;5118;48.570;7.916;2024-03-07T10:28:07;30.33;;;27.10;;
10154;SDS011;5118;48.570;7.916;2024-03-07T10:30:41;29.47;;;26.37;;
10154;SDS011;5118;48.570;7.916;2024-03-07T10:33:11;30.90;;;25.63;;
10154;SDS011;5118;48.570;7.916;2024-03-07T10:35:41;34.83;;;26.73;;
10154;SDS011;5118;48.570;7.916;2024-03-07T10:38:11;27.57;;;24.57;;
10154;SDS011;5118;48.570;7.916;2024-03-07T10:40:41;27.80;;;24.87;;
10154;SDS011;5118;48.570;7.916;2024-03-07T10:43:10;28.73;;;25.73;;
10154;SDS011;5118;48.570;7.916;2024-03-07T10:45:43;30.73;;;25.13;;
10154;SDS011;5118;48.570;7.916;2024-03-07T10:48:16;28.13;;;24.90;;
10154;SDS011;5118;48.570;7.916;2024-03-07T10:50:52;28.87;;;25.43;;
10154;SDS011;5118;48.570;7.916;2024-03-07T10:53:31;27.90;;;24.87;;
10154;SDS011;5118;48.570;7.916;2024-03-07T10:56:07;26.53;;;23.73;;
10154;SDS011;5118;48.570;7.916;2024-03-07T10:58:57;27.63;;;24.67;;
10154;SDS011;5118;48.570;7.916;2024-03-07T11:01:30;26.90;;;24.10;;
10154;SDS011;5118;48.570;7.916;2024-03-07T11:04:00;26.03;;;23.27;;
10154;SDS011;5118;48.570;7.916;2024-03-07T11:06:32;27.10;;;24.20;;
10154;SDS011;5118;48.570;7.916;2024-03-07T11:09:04;26.17;;;23.40;;
10154;SDS011;5118;48.570;7.916;2024-03-07T11:11:38;27.03;;;24.23;;
10154;SDS011;5118;48.570;7.916;2024-03-07T11:14:10;27.00;;;24.13;;
10154;SDS011;5118;48.570;7.916;2024-03-07T11:16:42;26.17;;;23.30;;
10154;SDS011;5118;48.570;7.916;2024-03-07T11:19:24;25.83;;;23.17;;
10154;SDS011;5118;48.570;7.916;2024-03-07T11:21:55;26.77;;;23.57;;
10154;SDS011;5118;48.570;7.916;2024-03-07T11:24:29;27.07;;;23.37;;
10154;SDS011;5118;48.570;7.916;2024-03-07T11:27:02;25.30;;;22.53;;
10154;SDS011;5118;48.570;7.916;2024-03-07T11:29:39;25.73;;;22.10;;
10154;SDS011;5118;48.570;7.916;2024-03-07T11:32:10;25.67;;;22.87;;
10154;SDS011;5118;48.570;7.916;2024-03-07T11:34:40;26.47;;;23.70;;
10154;SDS011;5118;48.570;7.916;2024-03-07T11:37:16;26.90;;;24.03;;
10154;SDS011;5118;48.570;7.916;2024-03-07T11:39:51;26.87;;;22.77;;
10154;SDS011;5118;48.570;7.916;2024-03-07T11:42:22;26.20;;;23.50;;
10154;SDS011;5118;48.570;7.916;2024-03-07T11:44:53;25.97;;;23.27;;
10154;SDS011;5118;48.570;7.916;2024-03-07T11:47:24;27.03;;;24.10;;
10154;SDS011;5118;48.570;7.916;2024-03-07T11:49:56;26.37;;;23.60;;
10154;SDS011;5118;48.570;7.916;2024-03-07T11:52:25;26.70;;;23.80;;
10154;SDS011;5118;48.570;7.916;2024-03-07T11:54:56;27.05;;;24.15;;
10154;SDS011;5118;48.570;7.916;2024-03-07T11:57:31;26.80;;;23.93;;
10154;SDS011;5118;48.570;7.916;2024-03-07T11:59:59;25.67;;;22.97;;
10154;SDS011;5118;48.570;7.916;2024-03-07T12:02:38;27.10;;;24.30;;
10154;SDS011;5118;48.570;7.916;2024-03-07T12:05:07;26.47;;;23.67;;
10154;SDS011;5118;48.570;7.916;2024-03-07T12:07:36;27.67;;;23.43;;
10154;SDS011;5118;48.570;7.916;2024-03-07T12:10:07;26.13;;;22.90;;
10154;SDS011;5118;48.570;7.916;2024-03-07T12:12:36;26.17;;;23.43;;
10154;SDS011;5118;48.570;7.916;2024-03-07T12:15:06;26.23;;;23.43;;
10154;SDS011;5118;48.570;7.916;2024-03-07T12:17:44;25.93;;;23.07;;
10154;SDS011;5118;48.570;7.916;2024-03-07T12:20:16;26.17;;;22.77;;
10154;SDS011;5118;48.570;7.916;2024-03-07T12:22:58;25.43;;;22.70;;
10154;SDS011;5118;48.570;7.916;2024-03-07T12:25:31;27.37;;;24.30;;
10154;SDS011;5118;48.570;7.916;2024-03-07T12:28:04;27.67;;;24.07;;
10154;SDS011;5118;48.570;7.916;2024-03-07T12:30:47;26.97;;;23.80;;
10154;SDS011;5118;48.570;7.916;2024-03-07T12:33:18;26.73;;;23.93;;
10154;SDS011;5118;48.570;7.916;2024-03-07T12:35:48;29.47;;;24.50;;
10154;SDS011;5118;48.570;7.916;2024-03-07T12:38:26;27.07;;;23.50;;
10154;SDS011;5118;48.570;7.916;2024-03-07T12:41:04;28.70;;;24.50;;
10154;SDS011;5118;48.570;7.916;2024-03-07T12:43:34;26.47;;;23.57;;
10154;SDS011;5118;48.570;7.916;2024-03-07T12:46:04;27.30;;;24.33;;
10154;SDS011;5118;48.570;7.916;2024-03-07T12:48:35;33.10;;;28.07;;
10154;SDS011;5118;48.570;7.916;2024-03-07T12:51:05;29.33;;;25.70;;
10154;SDS011;5118;48.570;7.916;2024-03-07T12:53:34;26.80;;;23.57;;
10154;SDS011;5118;48.570;7.916;2024-03-07T12:56:06;27.47;;;23.80;;
10154;SDS011;5118;48.570;7.916;2024-03-07T12:58:35;27.90;;;24.33;;
10154;SDS011;5118;48.570;7.916;2024-03-07T13:01:04;28.43;;;24.00;;
10154;SDS011;5118;48.570;7.916;2024-03-07T13:03:32;28.67;;;25.57;;
10154;SDS011;5118;48.570;7.916;2024-03-07T13:06:02;27.50;;;24.60;;
10154;SDS011;5118;48.570;7.916;2024-03-07T13:08:31;32.17;;;28.63;;
10154;SDS011;5118;48.570;7.916;2024-03-07T13:11:00;29.57;;;25.97;;
10154;SDS011;5118;48.570;7.916;2024-03-07T13:13:31;27.10;;;24.20;;
10154;SDS011;5118;48.570;7.916;2024-03-07T13:15:59;28.33;;;25.30;;
10154;SDS011;5118;48.570;7.916;2024-03-07T13:18:27;30.83;;;25.90;;
10154;SDS011;5118;48.570;7.916;2024-03-07T13:21:02;27.27;;;24.47;;
10154;SDS011;5118;48.570;7.916;2024-03-07T13:23:34;27.40;;;24.50;;
10154;SDS011;5118;48.570;7.916;2024-03-07T13:26:03;27.77;;;23.57;;
10154;SDS011;5118;48.570;7.916;2024-03-07T13:28:37;25.67;;;22.97;;
10154;SDS011;5118;48.570;7.916;2024-03-07T13:31:05;26.03;;;23.23;;
10154;SDS011;5118;48.570;7.916;2024-03-07T13:33:35;29.40;;;24.33;;
10154;SDS011;5118;48.570;7.916;2024-03-07T13:36:04;27.17;;;24.23;;
10154;SDS011;5118;48.570;7.916;2024-03-07T13:38:34;27.80;;;22.83;;
10154;SDS011;5118;48.570;7.916;2024-03-07T13:41:03;26.63;;;23.83;;
10154;SDS011;5118;48.570;7.916;2024-03-07T13:43:31;26.77;;;23.87;;
10154;SDS011;5118;48.570;7.916;2024-03-07T13:46:02;26.23;;;23.43;;
10154;SDS011;5118;48.570;7.916;2024-03-07T13:48:30;26.90;;;23.93;;
10154;SDS011;5118;48.570;7.916;2024-03-07T13:51:03;25.97;;;23.17;;
10154;SDS011;5118;48.570;7.916;2024-03-07T13:53:35;28.27;;;25.17;;
10154;SDS011;5118;48.570;7.916;2024-03-07T13:56:23;28.83;;;25.73;;
10154;SDS011;5118;48.570;7.916;2024-03-07T14:02:11;28.37;;;24.63;;
10154;SDS011;5118;48.570;7.916;2024-03-07T14:05:10;58.50;;;45.93;;
10154;SDS011;5118;48.570;7.916;2024-03-07T14:08:00;117.13;;;89.43;;
10154;SDS011;5118;48.570;7.916;2024-03-07T14:11:01;67.50;;;59.40;;
10154;SDS011;5118;48.570;7.916;2024-03-07T14:14:06;28.10;;;25.20;;
10154;SDS011;5118;48.570;7.916;2024-03-07T14:17:03;26.17;;;23.37;;
10154;SDS011;5118;48.570;7.916;2024-03-07T14:23:13;33.13;;;29.23;;
10154;SDS011;5118;48.570;7.916;2024-03-07T14:25:50;27.33;;;24.33;;
10154;SDS011;5118;48.570;7.916;2024-03-07T14:28:40;26.10;;;22.93;;
10154;SDS011;5118;48.570;7.916;2024-03-07T14:31:27;31.23;;;27.67;;
10154;SDS011;5118;48.570;7.916;2024-03-07T14:34:02;30.90;;;27.63;;
10154;SDS011;5118;48.570;7.916;2024-03-07T14:36:39;28.23;;;25.23;;
10154;SDS011;5118;48.570;7.916;2024-03-07T14:39:14;29.50;;;25.63;;
10154;SDS011;5118;48.570;7.916;2024-03-07T14:41:50;27.47;;;24.57;;
10154;SDS011;5118;48.570;7.916;2024-03-07T14:44:20;27.37;;;23.90;;
10154;SDS011;5118;48.570;7.916;2024-03-07T14:46:51;26.80;;;23.90;;
10154;SDS011;5118;48.570;7.916;2024-03-07T14:49:24;27.40;;;24.40;;
10154;SDS011;5118;48.570;7.916;2024-03-07T14:51:54;28.60;;;25.50;;
10154;SDS011;5118;48.570;7.916;2024-03-07T14:54:27;30.80;;;26.30;;
10154;SDS011;5118;48.570;7.916;2024-03-07T14:56:57;30.03;;;25.67;;
10154;SDS011;5118;48.570;7.916;2024-03-07T14:59:25;26.40;;;23.43;;